Terminal Aerodrome Forecast
Issued by NWS

Home | Current Version | Previous Version | Text Only | Print | Product List | Glossary On
Versions: 1 2 3 4 5 6 7 8 9 10 11 12 13 14 15 16
000
FTUS42 KTBW 292330
TAFLAL
TAF
KLAL 292330Z 3000/3024 02007KT P6SM SKC
     FM300400 VRB03KT P6SM SKC
     FM301300 09004KT P6SM SKC
     FM301900 32006KT P6SM SKC
      AMD NOT SKED 3003/3012=

USA.gov is the U.S. government's official web portal to all federal, state and local government web resources and services.